Terminal Aerodrome Forecast
Issued by NWS

Home | Current Version | Previous Version | Text Only | Print | Product List | Glossary On
Versions: 1 2 3 4 5 6 7 8 9 10 11 12 13 14 15 16 17 18 19 20 21 22 23 24 25 26 27 28 29 30 31
000
FTUS43 KSGF 210300 AAA
TAFJLN
TAF AMD
KJLN 210310Z 2103/2124 19010KT P6SM OVC015
     FM211200 18010KT 4SM BR OVC012
     FM211700 18012KT P6SM OVC015=

USA.gov is the U.S. government's official web portal to all federal, state and local government web resources and services.